Time;durP1;ratioP1;P1;durP2;ratioP2;P2;SDS_P1;SDS_P2;PMS_P1;PMS_P2;Temp;Humidity;BMP_temperature;BMP_pressure;BME280_temperature;BME280_humidity;BME280_pressure;Samples;Min_cycle;Max_cycle;Signal;HPM_P1;HPM_P2
2021/12/21 00:01:34;;;;;;;0.60;0.55;;;1.80;99.90;;;;;;5003875;28;20563;-86
2021/12/21 00:04:03;;;;;;;0.57;0.43;;;1.80;99.90;;;;;;4993215;28;20041;-86
2021/12/21 00:06:32;;;;;;;1.67;0.85;;;1.90;99.90;;;;;;4990878;28;20509;-87
2021/12/21 00:08:58;;;;;;;4.25;1.13;;;1.90;99.90;;;;;;4992993;28;20078;-87
2021/12/21 00:11:24;;;;;;;2.40;1.02;;;1.80;99.90;;;;;;4991531;28;20042;-86
2021/12/21 00:19:08;;;;;;;1.08;0.60;;;1.80;99.90;;;;;;4992525;28;20040;-87
2021/12/21 00:21:38;;;;;;;2.00;0.82;;;1.80;99.90;;;;;;4988742;28;20041;-86
2021/12/21 00:24:12;;;;;;;2.53;1.45;;;1.80;99.90;;;;;;4991603;28;20030;-86
2021/12/21 00:26:38;;;;;;;1.95;0.65;;;1.70;99.90;;;;;;4990146;28;20069;-86
2021/12/21 00:29:04;;;;;;;1.20;0.60;;;1.80;99.90;;;;;;4990425;28;20030;-86
2021/12/21 00:31:35;;;;;;;0.98;0.50;;;1.70;99.90;;;;;;4989176;28;20041;-86
2021/12/21 00:34:03;;;;;;;1.05;0.82;;;1.70;99.90;;;;;;4990023;28;20041;-86
2021/12/21 00:36:30;;;;;;;2.10;1.10;;;1.70;99.90;;;;;;4989988;28;20110;-86
2021/12/21 00:38:58;;;;;;;3.00;0.57;;;1.80;99.90;;;;;;4987488;28;20471;-86
2021/12/21 00:41:25;;;;;;;;;;;1.80;99.90;;;;;;4982487;28;20100;-86
2021/12/21 00:43:51;;;;;;;1.95;0.82;;;1.80;99.90;;;;;;4971340;28;19921;-86
2021/12/21 00:46:17;;;;;;;0.60;0.60;;;1.80;99.90;;;;;;4974116;28;20129;-86
2021/12/21 00:49:13;;;;;;;0.63;0.50;;;1.70;99.90;;;;;;4971476;28;20038;-85
2021/12/21 00:51:32;;;;;;;0.68;0.47;;;1.80;99.90;;;;;;4972524;28;20047;-86
2021/12/21 00:53:58;;;;;;;3.08;0.85;;;1.80;99.90;;;;;;4985730;28;20046;-86
2021/12/21 00:56:23;;;;;;;1.50;1.00;;;1.80;99.90;;;;;;4981287;28;20497;-86
2021/12/21 00:58:49;;;;;;;1.45;0.85;;;1.80;99.90;;;;;;4969954;28;20478;-86
2021/12/21 01:01:15;;;;;;;0.45;0.35;;;1.80;99.90;;;;;;4975685;28;20209;-86
2021/12/21 01:03:45;;;;;;;1.83;0.77;;;1.80;99.90;;;;;;4971998;28;20371;-86
2021/12/21 01:06:37;;;;;;;1.65;0.85;;;1.80;99.90;;;;;;4971077;28;20569;-85
2021/12/21 01:12:08;;;;;;;0.95;0.50;;;1.90;99.90;;;;;;5002968;28;20063;-85
2021/12/21 01:17:33;;;;;;;1.38;0.85;;;1.90;99.90;;;;;;4972034;28;20491;-85
2021/12/21 01:20:24;;;;;;;1.08;0.73;;;1.90;99.90;;;;;;4971480;28;20038;-85
2021/12/21 01:25:49;;;;;;;;;;;1.80;99.90;;;;;;4989259;28;20038;-86
2021/12/21 01:28:23;;;;;;;0.55;0.35;;;1.70;99.90;;;;;;4973260;28;19909;-86
2021/12/21 01:31:04;;;;;;;0.40;0.32;;;1.60;99.90;;;;;;4973897;28;20035;-86
2021/12/21 01:36:36;;;;;;;1.55;0.95;;;1.70;99.90;;;;;;4988814;28;20544;-85
2021/12/21 01:39:43;;;;;;;2.30;0.80;;;1.70;99.90;;;;;;4977641;28;20538;-86
2021/12/21 01:41:58;;;;;;;1.35;0.73;;;1.70;99.90;;;;;;4970833;28;20038;-86
2021/12/21 01:49:42;;;;;;;2.20;0.85;;;1.80;99.90;;;;;;4972672;28;20093;-85
2021/12/21 01:52:12;;;;;;;0.93;0.57;;;1.80;99.90;;;;;;4990495;28;20059;-86
2021/12/21 01:54:38;;;;;;;2.63;1.10;;;1.70;99.90;;;;;;4995279;28;20041;-86
2021/12/21 01:57:05;;;;;;;1.23;1.05;;;1.70;99.90;;;;;;4993966;28;20031;-85
2021/12/21 01:59:32;;;;;;;0.63;0.50;;;1.70;99.90;;;;;;4973775;28;20041;-85
2021/12/21 02:01:58;;;;;;;3.90;0.82;;;1.70;99.90;;;;;;4974529;28;20663;-85
2021/12/21 02:04:23;;;;;;;1.05;0.80;;;1.70;99.90;;;;;;4978745;28;20043;-86
2021/12/21 02:06:49;;;;;;;1.80;1.10;;;1.70;99.90;;;;;;4977859;28;20097;-86
2021/12/21 02:09:16;;;;;;;2.72;1.40;;;1.70;99.90;;;;;;4976957;28;20096;-85
2021/12/21 02:11:42;;;;;;;1.17;0.97;;;1.70;99.90;;;;;;4981514;28;20445;-85
2021/12/21 02:14:09;;;;;;;1.08;0.60;;;1.70;99.90;;;;;;4979129;28;20265;-85
2021/12/21 02:16:52;;;;;;;2.17;1.35;;;1.80;99.90;;;;;;4990683;28;20042;-85
2021/12/21 02:19:29;;;;;;;2.10;0.73;;;1.80;99.90;;;;;;4978815;28;20559;-84
2021/12/21 02:22:06;;;;;;;2.28;0.93;;;1.90;99.90;;;;;;4977589;28;20671;-85
2021/12/21 02:24:40;;;;;;;0.95;0.82;;;1.80;99.90;;;;;;4970568;28;20697;-85
2021/12/21 02:27:17;;;;;;;1.58;0.80;;;1.80;99.90;;;;;;4989493;28;20550;-85
2021/12/21 02:29:43;;;;;;;3.30;1.05;;;1.80;99.90;;;;;;4961833;28;20039;-85
2021/12/21 02:32:12;;;;;;;1.45;0.80;;;1.80;99.90;;;;;;4976107;28;20413;-85
2021/12/21 02:34:38;;;;;;;1.27;0.80;;;1.80;99.90;;;;;;4973570;28;20035;-85
2021/12/21 02:37:04;;;;;;;1.80;1.20;;;1.90;99.90;;;;;;4988317;28;20034;-85
2021/12/21 02:39:30;;;;;;;3.00;0.90;;;1.90;99.90;;;;;;4975414;28;20037;-85
2021/12/21 02:41:55;;;;;;;1.08;0.70;;;1.90;99.90;;;;;;4974583;28;20070;-84
2021/12/21 02:44:21;;;;;;;1.90;1.38;;;2.00;99.90;;;;;;4973993;28;20049;-85
2021/12/21 02:46:48;;;;;;;3.53;1.60;;;2.00;99.90;;;;;;4976334;28;20034;-85
2021/12/21 02:49:14;;;;;;;2.42;1.17;;;1.90;99.90;;;;;;4972498;28;20736;-85
2021/12/21 02:51:42;;;;;;;1.55;0.98;;;2.00;99.90;;;;;;4973620;28;20030;-85
2021/12/21 02:54:09;;;;;;;1.00;0.52;;;1.90;99.90;;;;;;4974161;28;20034;-85
2021/12/21 02:56:35;;;;;;;3.58;0.98;;;2.00;99.90;;;;;;4975323;28;20034;-85
2021/12/21 02:59:01;;;;;;;3.53;1.52;;;1.90;99.90;;;;;;4973873;28;20038;-85
2021/12/21 03:01:28;;;;;;;2.03;1.27;;;1.90;99.90;;;;;;4971606;28;20034;-85
2021/12/21 03:03:53;;;;;;;2.60;0.82;;;1.80;99.90;;;;;;4975067;28;20089;-86
2021/12/21 03:06:52;;;;;;;1.55;0.90;;;1.80;99.90;;;;;;4973525;28;20046;-85
2021/12/21 03:09:18;;;;;;;2.88;1.30;;;1.70;99.90;;;;;;4972683;28;20066;-85
2021/12/21 03:11:56;;;;;;;1.50;0.68;;;1.60;99.90;;;;;;4990501;28;20085;-85
2021/12/21 03:14:25;;;;;;;0.95;0.57;;;1.70;99.90;;;;;;4975512;28;20109;-86
2021/12/21 03:16:54;;;;;;;1.25;0.60;;;1.70;99.90;;;;;;4973731;28;20108;-87
2021/12/21 03:19:19;;;;;;;5.18;1.05;;;1.70;99.90;;;;;;4973904;28;20038;-86
2021/12/21 03:21:45;;;;;;;2.58;1.08;;;1.70;99.90;;;;;;4972135;28;25200;-86
2021/12/21 03:24:11;;;;;;;3.30;0.80;;;1.70;99.90;;;;;;4973790;28;20045;-86
2021/12/21 03:26:38;;;;;;;2.22;1.17;;;1.70;99.90;;;;;;4982198;28;20133;-86
2021/12/21 03:29:05;;;;;;;3.92;0.93;;;1.70;99.90;;;;;;4992974;28;20625;-86
2021/12/21 03:31:31;;;;;;;1.05;0.65;;;1.70;99.90;;;;;;4994235;28;20058;-86
2021/12/21 03:33:57;;;;;;;0.63;0.60;;;1.70;99.90;;;;;;4983910;28;20030;-87
2021/12/21 03:36:23;;;;;;;5.60;0.98;;;1.70;99.90;;;;;;5002028;28;20046;-86
2021/12/21 03:39:03;;;;;;;3.95;1.70;;;1.70;99.90;;;;;;4976332;28;20038;-86
2021/12/21 03:41:29;;;;;;;2.80;1.73;;;1.70;99.90;;;;;;4981922;28;20057;-86
2021/12/21 03:43:56;;;;;;;3.67;1.73;;;1.70;99.90;;;;;;4991864;28;20062;-86
2021/12/21 03:46:24;;;;;;;3.83;0.93;;;1.70;99.90;;;;;;4991197;28;20678;-85
2021/12/21 03:48:49;;;;;;;;;;;1.70;99.90;;;;;;4991672;28;20045;-86
2021/12/21 03:51:17;;;;;;;1.67;0.98;;;1.60;99.90;;;;;;4992396;28;19917;-85
2021/12/21 03:53:45;;;;;;;3.08;1.05;;;1.60;99.90;;;;;;4993329;28;20311;-86
2021/12/21 03:58:43;;;;;;;2.58;1.63;;;1.60;99.90;;;;;;4991189;28;20377;-86
2021/12/21 04:01:09;;;;;;;2.78;1.10;;;1.60;99.90;;;;;;4997594;28;20732;-86
2021/12/21 04:03:36;;;;;;;2.63;1.85;;;1.70;99.90;;;;;;4989252;28;20034;-86
2021/12/21 04:06:01;;;;;;;2.92;1.60;;;1.60;99.90;;;;;;4991323;28;20038;-86
2021/12/21 04:08:27;;;;;;;4.28;1.20;;;1.70;99.90;;;;;;4991141;28;20470;-86
2021/12/21 04:10:52;;;;;;;3.67;1.95;;;1.70;99.90;;;;;;4990666;28;20114;-86
2021/12/21 04:13:20;;;;;;;1.70;1.00;;;1.80;99.90;;;;;;4996389;28;20088;-85
2021/12/21 04:15:50;;;;;;;2.60;0.88;;;1.70;99.90;;;;;;4989859;28;20116;-84
2021/12/21 04:18:19;;;;;;;2.58;1.40;;;1.70;99.90;;;;;;4994871;28;20117;-84
2021/12/21 04:20:47;;;;;;;2.35;1.27;;;1.70;99.90;;;;;;4990922;28;20152;-84
2021/12/21 04:23:13;;;;;;;3.83;1.13;;;1.70;99.90;;;;;;4990534;28;20039;-85
2021/12/21 04:25:39;;;;;;;1.60;1.00;;;1.70;99.90;;;;;;4988861;28;20520;-85
2021/12/21 04:28:05;;;;;;;1.90;1.20;;;1.80;99.90;;;;;;4993421;28;20091;-84
2021/12/21 04:30:31;;;;;;;2.65;1.38;;;1.70;99.90;;;;;;4991929;28;20034;-84
2021/12/21 04:32:57;;;;;;;2.38;1.65;;;1.70;99.90;;;;;;4993509;28;20035;-83
2021/12/21 04:35:23;;;;;;;2.05;0.98;;;1.70;99.90;;;;;;4993848;28;20030;-84
2021/12/21 04:37:58;;;;;;;2.42;1.30;;;1.70;99.90;;;;;;5003818;28;20054;-85
2021/12/21 04:40:37;;;;;;;1.23;0.98;;;1.70;99.90;;;;;;5003688;28;20181;-84
2021/12/21 04:43:04;;;;;;;2.28;1.10;;;1.70;99.90;;;;;;4971827;28;20454;-84
2021/12/21 04:45:29;;;;;;;6.43;2.15;;;1.70;99.90;;;;;;4971986;28;20042;-83
2021/12/21 04:47:55;;;;;;;3.83;2.33;;;1.70;99.90;;;;;;4971847;28;20502;-83
2021/12/21 04:50:21;;;;;;;5.45;1.63;;;1.70;99.90;;;;;;4974197;28;20042;-83
2021/12/21 04:52:46;;;;;;;1.80;1.17;;;1.60;99.90;;;;;;4974225;28;20026;-84
2021/12/21 04:55:18;;;;;;;2.10;0.95;;;1.70;99.90;;;;;;4972523;28;20388;-84
2021/12/21 04:57:46;;;;;;;5.93;1.77;;;1.70;99.90;;;;;;4970523;28;20026;-82
2021/12/21 05:00:13;;;;;;;2.25;1.08;;;1.70;99.90;;;;;;4971092;28;20380;-83
2021/12/21 05:02:38;;;;;;;2.85;1.70;;;1.70;99.90;;;;;;4986302;28;20728;-83
2021/12/21 05:05:05;;;;;;;1.63;1.13;;;1.70;99.90;;;;;;4972620;28;20031;-83
2021/12/21 05:07:33;;;;;;;3.97;1.58;;;1.70;99.90;;;;;;4991225;28;20564;-83
2021/12/21 05:10:01;;;;;;;2.42;1.58;;;1.70;99.90;;;;;;4992128;28;20034;-83
2021/12/21 05:12:27;;;;;;;1.45;0.82;;;1.70;99.90;;;;;;5002781;28;20037;-83
2021/12/21 05:14:53;;;;;;;2.88;1.80;;;1.70;99.90;;;;;;5004969;28;20061;-83
2021/12/21 05:17:19;;;;;;;2.60;1.70;;;1.70;99.90;;;;;;4981010;28;20034;-83
2021/12/21 05:19:45;;;;;;;4.32;1.67;;;1.70;99.90;;;;;;4971426;28;20103;-83
2021/12/21 05:22:10;;;;;;;5.20;1.92;;;1.70;99.90;;;;;;4973095;28;20181;-83
2021/12/21 05:24:36;;;;;;;1.80;1.33;;;1.70;99.90;;;;;;4984823;28;20023;-84
2021/12/21 05:27:02;;;;;;;7.47;1.05;;;1.70;99.90;;;;;;4972955;28;20138;-84
2021/12/21 05:29:31;;;;;;;3.20;2.20;;;1.70;99.90;;;;;;4973148;28;20042;-83
2021/12/21 05:31:58;;;;;;;2.08;1.88;;;1.70;99.90;;;;;;4974247;28;20042;-83
2021/12/21 05:34:24;;;;;;;3.22;2.17;;;1.70;99.90;;;;;;4975514;28;20405;-83
2021/12/21 05:36:50;;;;;;;1.52;0.95;;;1.70;99.90;;;;;;4975587;28;20027;-82
2021/12/21 05:39:20;;;;;;;2.63;0.98;;;1.70;99.90;;;;;;4967128;28;20034;-83
2021/12/21 05:41:54;;;;;;;0.93;0.63;;;1.70;99.90;;;;;;4975856;28;20061;-83
2021/12/21 05:44:22;;;;;;;3.03;1.13;;;1.70;99.90;;;;;;4974736;28;20533;-83
2021/12/21 05:46:48;;;;;;;;;;;1.70;99.90;;;;;;4975730;28;20042;-83
2021/12/21 05:49:14;;;;;;;2.35;1.50;;;1.60;99.90;;;;;;4988874;28;19914;-84
2021/12/21 05:51:40;;;;;;;2.00;1.42;;;1.70;99.90;;;;;;4975602;28;20034;-83
2021/12/21 05:54:05;;;;;;;3.58;1.70;;;1.70;99.90;;;;;;4970442;28;20039;-84
2021/12/21 05:56:31;;;;;;;6.32;2.13;;;1.70;99.90;;;;;;4973946;28;20042;-84
2021/12/21 05:58:57;;;;;;;3.08;1.40;;;1.60;99.90;;;;;;4981191;28;20038;-84
2021/12/21 06:01:23;;;;;;;2.97;1.80;;;1.60;99.90;;;;;;4967256;28;20417;-84
2021/12/21 06:03:52;;;;;;;6.82;1.75;;;1.60;99.90;;;;;;4974847;28;20404;-84
2021/12/21 06:06:17;;;;;;;2.60;1.40;;;1.60;99.90;;;;;;4976254;28;20525;-84
2021/12/21 06:08:45;;;;;;;2.95;1.58;;;1.60;99.90;;;;;;4973621;28;20042;-84
2021/12/21 06:11:13;;;;;;;2.25;1.52;;;1.60;99.90;;;;;;4974221;28;20042;-84
2021/12/21 06:26:43;;;;;;;2.45;1.65;;;1.60;99.90;;;;;;4977267;28;20514;-84
2021/12/21 06:29:09;;;;;;;7.75;2.97;;;1.60;99.90;;;;;;4973620;28;20049;-83
2021/12/21 06:31:38;;;;;;;3.45;1.85;;;1.70;99.90;;;;;;4992346;28;20141;-84
2021/12/21 06:34:04;;;;;;;3.42;1.92;;;1.50;99.90;;;;;;5007856;28;20586;-84
2021/12/21 06:36:30;;;;;;;3.40;2.03;;;1.60;99.90;;;;;;4997902;28;20360;-82
2021/12/21 06:38:55;;;;;;;2.70;1.42;;;1.60;99.90;;;;;;4981759;28;20038;-84
2021/12/21 06:41:21;;;;;;;2.38;1.38;;;1.60;99.90;;;;;;4974777;28;20570;-84
2021/12/21 06:43:47;;;;;;;3.03;1.33;;;1.60;99.90;;;;;;4976783;28;20038;-83
2021/12/21 06:51:34;;;;;;;5.75;2.72;;;1.40;99.90;;;;;;4976862;28;20053;-80
2021/12/21 06:54:00;;;;;;;3.97;1.83;;;1.60;99.90;;;;;;4976632;28;20042;-81
2021/12/21 06:56:30;;;;;;;4.25;2.17;;;1.50;99.90;;;;;;4976486;28;20407;-81
2021/12/21 06:58:56;;;;;;;3.35;1.40;;;1.70;99.90;;;;;;4972647;28;20414;-80
2021/12/21 07:01:25;;;;;;;3.75;2.03;;;1.60;99.90;;;;;;4989892;28;20034;-81
2021/12/21 07:03:51;;;;;;;2.65;1.73;;;1.60;99.90;;;;;;4987638;28;20034;-82
2021/12/21 07:06:19;;;;;;;3.90;1.67;;;1.50;99.90;;;;;;4975286;28;20643;-82
2021/12/21 07:19:15;;;;;;;2.53;1.23;;;1.60;99.90;;;;;;4969751;28;20060;-81
2021/12/21 07:21:41;;;;;;;3.45;1.90;;;1.60;99.90;;;;;;4975495;28;20026;-81
2021/12/21 07:24:06;;;;;;;2.17;1.27;;;1.50;99.90;;;;;;4971876;28;20482;-82
2021/12/21 07:26:35;;;;;;;4.68;1.50;;;1.60;99.90;;;;;;4974254;28;20120;-82
2021/12/21 07:29:01;;;;;;;2.92;1.35;;;1.50;99.90;;;;;;4972104;28;20065;-82
2021/12/21 07:31:28;;;;;;;2.30;1.05;;;1.50;99.90;;;;;;4972104;28;20041;-83
2021/12/21 07:33:54;;;;;;;5.43;2.08;;;1.60;99.90;;;;;;4971424;28;20034;-83
2021/12/21 07:36:19;;;;;;;3.60;1.63;;;1.50;99.90;;;;;;4982949;28;20383;-83
2021/12/21 07:38:45;;;;;;;2.03;1.17;;;1.50;99.90;;;;;;4991133;28;20030;-83
2021/12/21 07:41:11;;;;;;;0.93;0.68;;;1.60;99.90;;;;;;4992130;28;20041;-83
2021/12/21 07:43:37;;;;;;;3.63;1.33;;;1.80;99.90;;;;;;4990409;28;20053;-83
2021/12/21 07:46:02;;;;;;;1.75;1.25;;;1.70;99.90;;;;;;4991063;28;20501;-82
2021/12/21 07:48:28;;;;;;;26.98;1.85;;;1.60;99.90;;;;;;4990822;28;20514;-83
2021/12/21 07:50:55;;;;;;;3.35;1.13;;;1.60;99.90;;;;;;4994120;28;20147;-83
2021/12/21 07:53:24;;;;;;;2.10;1.35;;;1.70;99.90;;;;;;4992491;28;20333;-78
2021/12/21 07:55:49;;;;;;;10.82;2.03;;;1.70;99.90;;;;;;4990419;28;20030;-79
2021/12/21 07:58:15;;;;;;;2.38;1.20;;;1.60;99.90;;;;;;4991870;28;20045;-79
2021/12/21 08:00:41;;;;;;;2.20;1.08;;;1.60;99.90;;;;;;4990718;28;20041;-78
2021/12/21 08:03:07;;;;;;;3.38;1.98;;;1.70;99.90;;;;;;4989113;28;20042;-78
2021/12/21 08:05:34;;;;;;;4.57;2.72;;;1.70;99.90;;;;;;4987576;28;20278;-78
2021/12/21 08:08:15;;;;;;;3.22;1.70;;;1.60;99.90;;;;;;4991420;28;20065;-79
2021/12/21 08:10:43;;;;;;;2.97;1.75;;;1.60;99.90;;;;;;4989482;28;20026;-79
2021/12/21 08:13:09;;;;;;;4.15;1.95;;;1.70;99.90;;;;;;4991282;28;20831;-78
2021/12/21 08:15:35;;;;;;;3.60;2.17;;;1.70;99.90;;;;;;5004659;28;20026;-82
2021/12/21 08:18:00;;;;;;;8.55;1.40;;;1.70;99.90;;;;;;4994538;28;20030;-81
2021/12/21 08:20:27;;;;;;;6.15;2.85;;;1.80;99.90;;;;;;4991674;28;20026;-82
2021/12/21 08:22:56;;;;;;;2.60;1.98;;;1.80;99.90;;;;;;4991710;28;20033;-82
2021/12/21 08:25:25;;;;;;;5.20;2.13;;;1.80;99.90;;;;;;4988139;28;20030;-81
2021/12/21 08:27:55;;;;;;;4.55;2.10;;;1.70;99.90;;;;;;4988881;28;20045;-82
2021/12/21 08:30:21;;;;;;;4.85;2.05;;;1.70;99.90;;;;;;4991331;28;20023;-82
2021/12/21 08:32:47;;;;;;;3.17;1.70;;;1.70;99.90;;;;;;4991862;28;20039;-81
2021/12/21 08:35:12;;;;;;;3.28;1.35;;;1.70;99.90;;;;;;4992215;28;20149;-81
2021/12/21 08:37:39;;;;;;;3.47;1.95;;;1.80;99.90;;;;;;4990473;28;20497;-82
2021/12/21 08:40:07;;;;;;;5.72;2.08;;;1.80;99.90;;;;;;4985929;28;20586;-82
2021/12/21 08:42:34;;;;;;;4.15;1.95;;;1.70;99.90;;;;;;4987063;28;20026;-81
2021/12/21 08:45:01;;;;;;;4.65;1.95;;;1.80;99.90;;;;;;4992291;28;20189;-82
2021/12/21 08:47:28;;;;;;;5.63;2.22;;;1.80;99.90;;;;;;4989494;28;20045;-81
2021/12/21 08:49:53;;;;;;;3.20;1.57;;;1.90;99.90;;;;;;4989088;28;20097;-82
2021/12/21 08:52:19;;;;;;;5.80;1.58;;;1.90;99.90;;;;;;4991439;28;20349;-81
2021/12/21 08:54:45;;;;;;;3.13;1.98;;;1.80;99.90;;;;;;4990030;28;20033;-81
2021/12/21 08:57:10;;;;;;;2.95;1.48;;;1.80;99.90;;;;;;4988596;28;20069;-81
2021/12/21 08:59:36;;;;;;;3.55;1.90;;;1.90;99.90;;;;;;4990112;28;20096;-81
2021/12/21 09:02:02;;;;;;;4.28;2.42;;;2.00;99.90;;;;;;4987854;28;20064;-82
2021/12/21 09:04:28;;;;;;;5.30;1.83;;;2.00;99.90;;;;;;4987528;28;20121;-81
2021/12/21 09:06:53;;;;;;;4.05;2.25;;;1.90;99.90;;;;;;4987516;28;20042;-81
2021/12/21 09:09:19;;;;;;;4.70;1.63;;;2.00;99.90;;;;;;4986179;28;20038;-82
2021/12/21 09:11:45;;;;;;;3.20;1.63;;;2.00;99.90;;;;;;4988707;28;20466;-81
2021/12/21 09:14:12;;;;;;;6.53;2.47;;;1.90;99.90;;;;;;4990346;28;20038;-82
2021/12/21 09:16:38;;;;;;;4.18;1.63;;;2.20;99.90;;;;;;4986895;28;20041;-81
2021/12/21 09:19:04;;;;;;;4.35;2.05;;;2.00;99.90;;;;;;4980638;28;20041;-81
2021/12/21 09:21:30;;;;;;;7.10;2.35;;;1.80;99.90;;;;;;4989806;28;20026;-81
2021/12/21 09:23:56;;;;;;;8.45;2.75;;;1.90;99.90;;;;;;4991005;28;20038;-81
2021/12/21 09:26:22;;;;;;;3.80;1.92;;;1.90;99.90;;;;;;4988026;28;21253;-81
2021/12/21 09:28:47;;;;;;;5.22;1.85;;;1.90;99.90;;;;;;4991159;28;20048;-81
2021/12/21 09:31:17;;;;;;;2.92;1.85;;;1.80;99.90;;;;;;4987324;28;20066;-80
2021/12/21 09:33:43;;;;;;;4.57;2.72;;;1.70;99.90;;;;;;5004228;28;20122;-81
2021/12/21 09:36:09;;;;;;;5.00;2.35;;;1.70;99.90;;;;;;4988457;28;20031;-80
2021/12/21 09:38:35;;;;;;;5.45;2.55;;;1.80;99.90;;;;;;4998288;28;20092;-81
2021/12/21 09:41:01;;;;;;;5.25;2.83;;;1.90;99.90;;;;;;4991274;28;20307;-81
2021/12/21 09:43:26;;;;;;;3.95;2.00;;;1.80;99.90;;;;;;4989972;28;20035;-81
2021/12/21 09:45:52;;;;;;;4.40;2.08;;;1.80;99.90;;;;;;4987438;28;20049;-81
2021/12/21 09:48:18;;;;;;;4.65;1.67;;;1.90;99.90;;;;;;4991281;28;20065;-81
2021/12/21 09:50:44;;;;;;;3.58;1.92;;;1.90;99.90;;;;;;4989389;28;20559;-81
2021/12/21 09:53:10;;;;;;;4.95;1.90;;;2.60;99.90;;;;;;4990793;28;20374;-81
2021/12/21 09:55:36;;;;;;;4.70;1.88;;;2.40;99.90;;;;;;4989389;28;20037;-80
2021/12/21 09:58:01;;;;;;;4.10;1.80;;;2.30;99.90;;;;;;4988732;28;20041;-80
2021/12/21 10:00:32;;;;;;;5.60;2.20;;;2.20;99.90;;;;;;4990653;28;20030;-80
2021/12/21 10:03:02;;;;;;;3.38;1.88;;;2.10;99.90;;;;;;4972689;28;20146;-81
2021/12/21 10:05:30;;;;;;;2.60;1.63;;;2.20;99.90;;;;;;4974376;28;20062;-80
2021/12/21 10:08:02;;;;;;;2.85;1.67;;;2.20;99.90;;;;;;4970065;28;20903;-81
2021/12/21 10:10:36;;;;;;;5.35;2.13;;;2.20;99.90;;;;;;4978032;28;20037;-81
2021/12/21 10:13:18;;;;;;;3.08;1.52;;;2.30;99.90;;;;;;4972712;28;20039;-81
2021/12/21 10:15:46;;;;;;;3.85;1.80;;;2.30;99.90;;;;;;4987871;28;20036;-81
2021/12/21 10:18:14;;;;;;;2.28;1.10;;;2.10;99.90;;;;;;4972674;28;20483;-81
2021/12/21 10:20:43;;;;;;;10.93;2.78;;;2.10;99.90;;;;;;4973975;28;20057;-81
2021/12/21 10:23:21;;;;;;;1.92;1.25;;;2.10;99.90;;;;;;4986419;28;20034;-80
2021/12/21 10:25:51;;;;;;;1.30;0.77;;;2.00;99.90;;;;;;4973596;28;20066;-81
2021/12/21 10:28:30;;;;;;;2.78;1.45;;;2.00;99.90;;;;;;4971585;28;20392;-81
2021/12/21 10:30:58;;;;;;;3.08;0.85;;;1.90;99.90;;;;;;4972073;28;20042;-81
2021/12/21 10:33:25;;;;;;;3.50;1.15;;;1.90;99.90;;;;;;4973644;28;20062;-80
2021/12/21 10:35:54;;;;;;;0.80;0.55;;;1.90;99.90;;;;;;4976161;28;20026;-80
2021/12/21 10:38:29;;;;;;;2.58;1.25;;;2.00;99.90;;;;;;4986688;28;20360;-81
2021/12/21 10:41:06;;;;;;;3.20;2.00;;;2.00;99.90;;;;;;4979742;28;20376;-81
2021/12/21 10:43:32;;;;;;;3.10;1.50;;;2.00;99.90;;;;;;4993262;28;20080;-80
2021/12/21 10:45:58;;;;;;;3.35;0.90;;;2.00;99.90;;;;;;4987298;28;20050;-80
2021/12/21 10:48:24;;;;;;;1.45;1.00;;;2.00;99.90;;;;;;4976672;28;20307;-80
2021/12/21 10:50:50;;;;;;;2.60;1.17;;;1.90;99.90;;;;;;4975295;28;20097;-81
2021/12/21 10:53:23;;;;;;;4.82;2.35;;;2.00;99.90;;;;;;4974781;28;20039;-81
2021/12/21 10:56:07;;;;;;;2.00;1.45;;;1.90;99.90;;;;;;4975528;28;20665;-80
2021/12/21 10:58:39;;;;;;;1.75;1.05;;;2.00;99.90;;;;;;4973540;28;20037;-80
2021/12/21 11:01:09;;;;;;;2.53;1.33;;;2.00;99.90;;;;;;4979503;28;20526;-81
2021/12/21 11:03:49;;;;;;;4.78;1.95;;;2.00;99.90;;;;;;4972503;28;20519;-80
2021/12/21 11:06:36;;;;;;;1.55;1.08;;;1.90;99.90;;;;;;4973897;28;20355;-80
2021/12/21 11:09:04;;;;;;;9.50;1.42;;;1.90;99.90;;;;;;4975138;28;20372;-81
2021/12/21 11:11:42;;;;;;;4.07;1.23;;;1.90;99.90;;;;;;4973293;28;20030;-80
2021/12/21 11:14:09;;;;;;;2.47;1.02;;;1.90;99.90;;;;;;4971819;28;20030;-81
2021/12/21 11:16:38;;;;;;;2.40;1.10;;;1.90;99.90;;;;;;4990348;28;20034;-81
2021/12/21 11:19:04;;;;;;;0.82;0.65;;;2.00;99.90;;;;;;4989920;28;20069;-81
2021/12/21 11:21:31;;;;;;;2.05;1.00;;;1.90;99.90;;;;;;4988187;28;20122;-81
2021/12/21 11:24:02;;;;;;;3.22;1.45;;;1.90;99.90;;;;;;4973585;28;20038;-81
2021/12/21 11:26:30;;;;;;;3.22;1.30;;;1.80;99.90;;;;;;4973857;28;20039;-81
2021/12/21 11:28:59;;;;;;;1.60;0.93;;;1.90;99.90;;;;;;4972998;28;20132;-81
2021/12/21 11:31:25;;;;;;;1.35;0.82;;;1.80;99.90;;;;;;4975643;28;20429;-81
2021/12/21 11:34:02;;;;;;;4.60;1.48;;;1.70;99.90;;;;;;4973630;28;20266;-81
2021/12/21 11:39:14;;;;;;;3.67;1.27;;;1.80;99.90;;;;;;4970946;28;20146;-81
2021/12/21 11:41:42;;;;;;;3.83;1.85;;;1.80;99.90;;;;;;4988994;28;20846;-80
2021/12/21 11:44:22;;;;;;;3.60;1.92;;;1.70;99.90;;;;;;4997925;28;20637;-81
2021/12/21 11:46:58;;;;;;;2.15;0.88;;;1.80;99.90;;;;;;4990664;28;22411;-81
2021/12/21 11:49:44;;;;;;;1.88;1.10;;;2.00;99.90;;;;;;4992864;28;20124;-81
2021/12/21 11:52:14;;;;;;;3.92;1.52;;;2.00;99.90;;;;;;4987865;28;20042;-81
2021/12/21 11:54:55;;;;;;;2.63;1.50;;;2.10;99.90;;;;;;4993069;28;20424;-81
2021/12/21 11:57:41;;;;;;;1.95;1.33;;;2.00;99.90;;;;;;4990009;28;20030;-81
2021/12/21 12:00:12;;;;;;;3.25;1.42;;;1.90;99.90;;;;;;5004538;28;20039;-81
2021/12/21 12:02:38;;;;;;;1.88;1.00;;;1.80;99.90;;;;;;4991068;28;20030;-81
2021/12/21 12:05:14;;;;;;;1.80;1.17;;;1.90;99.90;;;;;;4989669;28;20127;-81
2021/12/21 12:07:42;;;;;;;2.92;1.80;;;1.90;99.90;;;;;;4977203;28;20043;-81
2021/12/21 12:10:11;;;;;;;2.88;1.27;;;2.00;99.90;;;;;;4971168;28;20650;-81
2021/12/21 12:12:37;;;;;;;5.47;1.77;;;2.00;99.90;;;;;;4989357;28;20563;-81
2021/12/21 12:15:06;;;;;;;4.60;1.92;;;1.80;99.90;;;;;;5001959;28;20043;-80
2021/12/21 12:17:32;;;;;;;2.17;1.38;;;1.70;99.90;;;;;;4989816;28;20829;-80
2021/12/21 12:20:03;;;;;;;2.80;1.55;;;1.70;99.90;;;;;;4998123;28;20030;-81
2021/12/21 12:22:37;;;;;;;2.70;1.45;;;1.80;99.90;;;;;;4972131;28;20415;-80
2021/12/21 12:25:06;;;;;;;2.35;1.50;;;1.80;99.90;;;;;;4967772;28;20065;-80
2021/12/21 12:27:32;;;;;;;3.53;1.58;;;1.70;99.90;;;;;;4971175;28;20587;-80
2021/12/21 12:30:09;;;;;;;4.05;1.95;;;1.80;99.90;;;;;;4969509;28;20050;-80
2021/12/21 12:32:36;;;;;;;2.33;1.40;;;1.80;99.90;;;;;;4987760;28;20086;-80
2021/12/21 12:35:06;;;;;;;5.17;2.30;;;1.90;99.90;;;;;;4986929;28;20044;-81
2021/12/21 12:37:32;;;;;;;1.92;1.30;;;1.90;99.90;;;;;;4977169;28;20038;-81
2021/12/21 12:40:18;;;;;;;2.50;1.55;;;1.90;99.90;;;;;;4969808;28;20407;-81
2021/12/21 12:42:53;;;;;;;2.83;1.37;;;1.80;99.90;;;;;;4972475;28;20039;-80
2021/12/21 12:45:21;;;;;;;3.95;1.58;;;1.80;99.90;;;;;;4970851;28;20520;-80
2021/12/21 12:47:52;;;;;;;4.75;1.50;;;1.70;99.90;;;;;;4984419;28;20624;-81
2021/12/21 12:50:24;;;;;;;1.83;1.33;;;1.70;99.90;;;;;;4978646;28;20869;-81
2021/12/21 12:53:02;;;;;;;3.88;1.98;;;1.70;99.90;;;;;;4977661;28;20041;-81
2021/12/21 12:55:52;;;;;;;2.88;1.85;;;1.80;99.90;;;;;;4986887;28;20030;-80
2021/12/21 12:58:22;;;;;;;1.88;1.25;;;1.80;99.90;;;;;;4970939;28;20027;-80
2021/12/21 13:01:06;;;;;;;4.10;2.28;;;1.80;99.90;;;;;;4969674;28;20479;-80
2021/12/21 13:03:37;;;;;;;3.25;1.55;;;1.80;99.90;;;;;;4977662;28;20109;-81
2021/12/21 13:06:10;;;;;;;5.72;2.90;;;1.90;99.90;;;;;;4971430;28;20043;-81
2021/12/21 13:08:36;;;;;;;5.22;1.45;;;1.70;99.90;;;;;;4967546;28;20444;-81
2021/12/21 13:11:02;;;;;;;3.53;1.55;;;1.60;99.90;;;;;;4972004;28;20042;-81
2021/12/21 13:13:40;;;;;;;3.35;1.88;;;1.80;99.90;;;;;;4970676;28;20112;-80
2021/12/21 13:16:08;;;;;;;2.67;1.58;;;1.80;99.90;;;;;;4969548;28;20046;-81
2021/12/21 13:18:42;;;;;;;2.80;1.65;;;1.70;99.90;;;;;;4984171;28;20057;-80
2021/12/21 13:21:21;;;;;;;2.88;1.75;;;1.70;99.90;;;;;;4970807;28;20043;-81
2021/12/21 13:23:50;;;;;;;3.95;1.83;;;1.60;99.90;;;;;;4971914;28;20035;-80
2021/12/21 13:26:17;;;;;;;1.48;1.00;;;1.70;99.90;;;;;;4987270;28;20038;-81
2021/12/21 13:28:52;;;;;;;1.90;1.27;;;1.70;99.90;;;;;;4968126;28;20081;-80
2021/12/21 13:31:20;;;;;;;1.83;1.25;;;1.60;99.90;;;;;;4970799;28;20549;-80
2021/12/21 13:33:54;;;;;;;3.40;1.95;;;1.50;99.90;;;;;;4961177;28;20231;-80
2021/12/21 13:36:37;;;;;;;3.10;1.27;;;1.60;99.90;;;;;;4979805;28;20031;-81
2021/12/21 13:39:16;;;;;;;1.58;0.80;;;1.70;99.90;;;;;;4970478;28;20030;-80
2021/12/21 13:41:50;;;;;;;2.58;1.67;;;1.60;99.90;;;;;;4973513;28;20035;-81
2021/12/21 13:44:26;;;;;;;2.63;1.17;;;1.50;99.90;;;;;;4970279;28;20047;-81
2021/12/21 13:46:53;;;;;;;2.75;1.48;;;1.60;99.90;;;;;;4981778;28;20050;-81
2021/12/21 13:49:22;;;;;;;4.00;1.42;;;1.60;99.90;;;;;;4980132;28;20046;-80
2021/12/21 13:51:48;;;;;;;4.50;2.00;;;1.50;99.90;;;;;;4982222;28;20552;-81
2021/12/21 13:54:17;;;;;;;3.67;1.95;;;1.50;99.90;;;;;;4987792;28;20097;-80
2021/12/21 13:56:43;;;;;;;2.33;1.23;;;1.50;99.90;;;;;;4975006;28;20035;-81
2021/12/21 13:59:13;;;;;;;4.07;2.15;;;1.70;99.90;;;;;;4971986;28;20465;-81
2021/12/21 14:01:39;;;;;;;2.13;1.08;;;1.60;99.90;;;;;;4988856;28;20057;-81
2021/12/21 14:04:10;;;;;;;2.42;1.30;;;1.60;99.90;;;;;;4972193;28;20046;-81